Terminal Aerodrome Forecast
Issued by NWS

Home | Current Version | Previous Version | Text Only | Print | Product List | Glossary Off
Versions: 1 2 3 4 5 6 7 8 9 10 11 12 13 14 15 16 17

870
FTUS43 KICT 060345 AAA
TAFCNU
TAF AMD
KCNU 060345Z 0604/0624 15004KT 5SM BR SCT015 SCT035
      TEMPO 0604/0606 2SM BR BKN015
     FM060600 00000KT P6SM SCT015 BKN030
     FM060900 34012KT P6SM SCT015 BKN025
     FM061100 35013G21KT P6SM SCT035=

USA.gov is the U.S. government's official web portal to all federal, state and local government web resources and services.